createdAt,value
2017-03-19T00:00:03.292Z,10.05
2017-03-19T00:01:16.539Z,8.30
2017-03-19T00:02:29.416Z,8.17
2017-03-19T00:03:41.029Z,9.53
2017-03-19T00:05:00.821Z,7.38
2017-03-19T00:06:10.092Z,8.15
2017-03-19T00:07:25.018Z,8.93
2017-03-19T00:08:38.884Z,7.88
2017-03-19T00:09:52.363Z,8.08
2017-03-19T00:11:13.212Z,8.90
2017-03-19T00:12:31.727Z,8.00
2017-03-19T00:13:51.193Z,8.80
2017-03-19T00:15:12.474Z,8.65
2017-03-19T00:16:33.198Z,7.52
2017-03-19T00:17:51.772Z,10.60
2017-03-19T00:19:04.094Z,9.38
2017-03-19T00:20:16.737Z,8.57
2017-03-19T00:21:35.662Z,7.80
2017-03-19T00:22:47.935Z,9.10
2017-03-19T00:24:00.862Z,9.37
2017-03-19T00:25:13.306Z,9.07
2017-03-19T00:26:25.065Z,11.22
2017-03-19T00:27:45.109Z,8.38
2017-03-19T00:29:04.543Z,8.42
2017-03-19T00:30:17.039Z,10.45
2017-03-19T00:31:35.794Z,7.78
2017-03-19T00:32:49.262Z,8.43
2017-03-19T00:34:02.648Z,10.92
2017-03-19T00:35:22.500Z,9.95
2017-03-19T00:36:41.876Z,9.65
2017-03-19T00:38:01.566Z,10.40
2017-03-19T00:39:12.801Z,7.05
2017-03-19T00:40:25.379Z,9.58
2017-03-19T00:41:38.871Z,9.97
2017-03-19T00:42:58.790Z,11.12
2017-03-19T00:44:12.191Z,10.25
2017-03-19T00:45:34.083Z,8.20
2017-03-19T00:46:45.541Z,8.43
2017-03-19T00:48:05.281Z,7.35
2017-03-19T00:49:23.859Z,8.72
2017-03-19T00:50:45.115Z,8.63
2017-03-19T00:51:55.651Z,8.08
2017-03-19T00:53:18.506Z,7.33
2017-03-19T00:54:31.067Z,7.87
2017-03-19T00:55:50.653Z,8.43
2017-03-19T00:57:09.348Z,7.30
2017-03-19T00:58:20.716Z,8.32
2017-03-19T00:59:44.365Z,7.17
2017-03-19T01:01:03.692Z,7.15
2017-03-19T01:02:23.146Z,8.12
2017-03-19T01:03:36.434Z,7.62
2017-03-19T01:04:58.267Z,7.67
2017-03-19T01:06:17.770Z,6.92
2017-03-19T01:07:28.255Z,9.60
2017-03-19T01:08:47.997Z,7.28
2017-03-19T01:10:04.549Z,11.75
2017-03-19T01:11:24.182Z,11.58
2017-03-19T01:12:45.689Z,8.47
2017-03-19T01:14:00.844Z,10.33
2017-03-19T01:15:20.108Z,7.25
2017-03-19T01:16:40.614Z,7.55
2017-03-19T01:17:51.990Z,7.48
2017-03-19T01:19:04.548Z,8.98
2017-03-19T01:20:14.163Z,9.58
2017-03-19T01:21:26.831Z,9.17
2017-03-19T01:22:38.640Z,7.72
2017-03-19T01:23:57.435Z,8.88
2017-03-19T01:25:09.773Z,9.62
2017-03-19T01:26:23.399Z,8.52
2017-03-19T01:27:36.184Z,9.67
2017-03-19T01:28:50.452Z,10.27
2017-03-19T01:30:14.314Z,8.90
2017-03-19T01:31:35.020Z,10.12
2017-03-19T01:32:46.328Z,12.65
2017-03-19T01:34:07.155Z,7.60
2017-03-19T01:35:29.626Z,7.60
2017-03-19T01:36:48.272Z,9.53
2017-03-19T01:38:08.868Z,7.17
2017-03-19T01:39:29.233Z,9.10
2017-03-19T01:40:40.577Z,7.83
2017-03-19T01:41:55.081Z,7.47
2017-03-19T01:43:10.683Z,6.70
2017-03-19T02:45:58.845Z,14.43
2017-03-19T02:47:21.501Z,11.78
2017-03-19T02:48:40.853Z,12.73
2017-03-19T02:49:53.594Z,9.92
2017-03-19T02:51:15.309Z,9.02
2017-03-19T02:52:20.331Z,13.23
2017-03-19T02:53:42.420Z,13.63
2017-03-19T02:54:57.447Z,14.07
2017-03-19T02:56:15.301Z,12.92
2017-03-19T02:57:34.854Z,12.88
2017-03-19T02:58:52.302Z,11.53
2017-03-19T03:00:19.748Z,12.90
2017-03-19T03:01:28.410Z,14.30
2017-03-19T03:02:33.117Z,14.53
2017-03-19T03:03:48.938Z,11.00
2017-03-19T03:04:55.080Z,7.30
2017-03-19T03:06:16.358Z,14.70
2017-03-19T03:07:36.989Z,15.78
2017-03-19T03:08:58.762Z,12.93
2017-03-19T03:10:05.282Z,12.25
2017-03-19T03:11:16.158Z,9.90
2017-03-19T03:12:36.126Z,14.33
2017-03-19T03:13:51.435Z,14.53
2017-03-19T03:15:11.083Z,17.57
2017-03-19T03:16:16.061Z,18.73
2017-03-19T03:17:27.694Z,15.82
2017-03-19T03:18:41.359Z,10.72
2017-03-19T03:19:50.610Z,14.90
2017-03-19T03:20:55.423Z,13.38
2017-03-19T03:22:01.021Z,14.83
2017-03-19T03:23:14.619Z,15.43
2017-03-19T03:24:20.794Z,12.78
2017-03-19T03:25:41.951Z,12.18
2017-03-19T03:26:54.078Z,14.35
2017-03-19T03:28:15.962Z,13.32
2017-03-19T03:29:21.823Z,13.92
2017-03-19T03:30:26.714Z,14.98
2017-03-19T03:31:40.460Z,17.15
2017-03-19T03:32:52.835Z,12.93
2017-03-19T03:34:12.634Z,11.65
2017-03-19T03:35:34.211Z,13.58
2017-03-19T03:36:39.382Z,12.77
2017-03-19T03:37:52.910Z,9.70
2017-03-19T03:39:04.575Z,11.60
2017-03-19T03:40:24.193Z,8.25
2017-03-19T03:41:43.647Z,10.13
2017-03-19T03:43:03.057Z,12.30
2017-03-19T03:44:22.493Z,13.50
2017-03-19T03:45:35.890Z,11.05
2017-03-19T03:48:27.741Z,12.93
2017-03-19T03:49:39.999Z,11.78
2017-03-19T03:51:01.877Z,13.37
2017-03-19T03:52:23.406Z,16.95
2017-03-19T03:53:36.673Z,12.10
2017-03-19T03:54:57.512Z,13.93
2017-03-19T03:56:16.121Z,10.35
2017-03-19T03:57:29.517Z,10.70
2017-03-19T03:58:41.328Z,10.05
2017-03-19T04:00:02.013Z,12.08
2017-03-19T04:01:20.496Z,10.00
2017-03-19T04:02:31.781Z,10.22
2017-03-19T04:03:44.683Z,8.37
2017-03-19T04:04:51.231Z,8.30
2017-03-19T04:06:02.957Z,11.35
2017-03-19T04:07:14.562Z,7.82
2017-03-19T04:08:30.216Z,10.42
2017-03-19T04:09:35.738Z,12.00
2017-03-19T04:10:47.329Z,12.30
2017-03-19T04:12:07.177Z,12.65
2017-03-19T04:13:26.497Z,13.37
2017-03-19T04:14:45.918Z,11.67
2017-03-19T04:15:54.641Z,12.68
2017-03-19T04:17:03.320Z,12.75
2017-03-19T04:18:22.798Z,12.57
2017-03-19T04:19:44.997Z,12.92
2017-03-19T04:20:58.037Z,11.92
2017-03-19T04:22:15.798Z,13.78
2017-03-19T04:23:34.426Z,11.67
2017-03-19T04:24:55.078Z,12.55
2017-03-19T04:26:16.587Z,12.42
2017-03-19T04:27:30.660Z,13.17
2017-03-19T04:28:44.138Z,11.85
2017-03-19T04:30:04.105Z,12.28
2017-03-19T04:31:23.534Z,11.27
2017-03-19T04:32:45.156Z,12.43
2017-03-19T04:33:55.313Z,11.75
2017-03-19T04:35:17.317Z,11.90
2017-03-19T04:36:38.750Z,11.37
2017-03-19T04:37:43.842Z,11.80
2017-03-19T04:38:49.371Z,13.03
2017-03-19T04:40:11.501Z,12.88
2017-03-19T04:41:22.670Z,12.25
2017-03-19T04:42:28.813Z,12.67
2017-03-19T04:43:40.067Z,13.63
2017-03-19T04:45:03.725Z,12.05
2017-03-19T04:46:18.793Z,13.48
2017-03-19T04:48:54.978Z,12.83
2017-03-19T04:50:16.337Z,11.77
2017-03-19T04:51:22.050Z,16.92
2017-03-19T04:52:26.910Z,11.95
2017-03-19T04:53:42.610Z,10.50
2017-03-19T04:54:51.830Z,10.28
2017-03-19T04:56:02.750Z,9.35
2017-03-19T04:57:22.847Z,8.32
2017-03-19T04:58:31.574Z,8.53
2017-03-19T04:59:50.762Z,8.55
2017-03-19T05:02:41.722Z,7.72
2017-03-19T05:03:48.333Z,6.73
2017-03-19T05:05:07.814Z,6.58
2017-03-19T05:06:25.258Z,6.67
2017-03-19T05:07:30.520Z,7.63
2017-03-19T05:08:50.352Z,5.98
2017-03-19T05:09:55.301Z,6.42
2017-03-19T05:11:07.977Z,6.62
2017-03-19T05:12:19.502Z,6.50
2017-03-19T05:13:24.950Z,6.08
2017-03-19T05:14:46.199Z,6.60
2017-03-19T05:16:07.481Z,6.03
2017-03-19T05:17:27.011Z,6.38
2017-03-19T05:18:40.122Z,4.92
2017-03-19T05:19:45.642Z,4.78
2017-03-19T05:20:51.258Z,5.22
2017-03-19T05:21:56.662Z,5.37
2017-03-19T05:23:02.302Z,4.92
2017-03-19T05:24:19.596Z,4.70
2017-03-19T05:25:44.928Z,5.43
2017-03-19T05:26:50.009Z,4.90
2017-03-19T05:27:55.145Z,4.27
2017-03-19T05:30:38.278Z,3.72
2017-03-19T05:31:44.316Z,3.75
2017-03-19T05:32:49.760Z,4.42
2017-03-19T05:33:55.378Z,4.38
2017-03-19T05:35:00.145Z,5.30
2017-03-19T05:36:08.693Z,4.63
2017-03-19T05:37:13.582Z,4.23
2017-03-19T05:38:19.758Z,4.30
2017-03-19T05:39:25.443Z,5.95
2017-03-19T05:40:48.665Z,3.75
2017-03-19T05:42:01.908Z,3.38
2017-03-19T05:43:13.763Z,4.15
2017-03-19T05:44:34.215Z,3.55
2017-03-19T05:45:49.330Z,3.43
2017-03-19T05:47:09.211Z,4.73
2017-03-19T05:48:30.694Z,3.18
2017-03-19T05:49:52.213Z,3.77
2017-03-19T05:51:10.898Z,2.82
2017-03-19T05:52:31.278Z,3.45
2017-03-19T05:53:54.990Z,3.85
2017-03-19T05:55:08.204Z,3.92
2017-03-19T05:56:27.792Z,3.23
2017-03-19T05:57:50.360Z,2.63
2017-03-19T05:59:05.447Z,2.77
2017-03-19T06:00:27.155Z,3.03
2017-03-19T06:01:46.649Z,3.17
2017-03-19T06:03:06.075Z,2.85
2017-03-19T06:04:25.552Z,5.42
2017-03-19T06:05:47.023Z,3.38
2017-03-19T06:07:05.817Z,4.13
2017-03-19T06:08:14.718Z,2.83
2017-03-19T06:09:36.051Z,3.18
2017-03-19T06:10:58.568Z,3.18
2017-03-19T06:12:13.850Z,3.70
2017-03-19T06:13:33.750Z,3.47
2017-03-19T06:14:54.399Z,2.78
2017-03-19T06:16:06.788Z,4.30
2017-03-19T06:17:27.856Z,3.70
2017-03-19T06:18:39.231Z,3.90
2017-03-19T06:19:50.935Z,5.25
2017-03-19T06:21:02.709Z,3.75
2017-03-19T06:22:27.302Z,4.88
2017-03-19T06:23:48.036Z,4.25
2017-03-19T06:24:59.785Z,3.68
2017-03-19T06:26:20.136Z,3.18
2017-03-19T06:27:31.448Z,3.73
2017-03-19T06:28:49.028Z,3.30
2017-03-19T06:30:04.066Z,2.88
2017-03-19T06:31:26.143Z,2.85
2017-03-19T06:32:48.408Z,3.55
2017-03-19T06:34:06.986Z,4.80
2017-03-19T06:35:27.575Z,4.87
2017-03-19T06:36:46.956Z,2.88
2017-03-19T06:38:07.390Z,3.62
2017-03-19T06:39:27.030Z,4.72
2017-03-19T06:40:48.380Z,4.28
2017-03-19T06:42:10.147Z,3.70
2017-03-19T06:43:31.596Z,3.52
2017-03-19T06:44:51.104Z,4.90
2017-03-19T06:46:09.580Z,4.57
2017-03-19T06:47:29.256Z,4.50
2017-03-19T06:48:41.736Z,6.28
2017-03-19T06:50:03.000Z,4.05
2017-03-19T06:51:24.694Z,3.27
2017-03-19T06:52:44.034Z,3.18
2017-03-19T06:54:01.413Z,4.77
2017-03-19T06:55:14.669Z,3.50
2017-03-19T06:56:35.609Z,3.62
2017-03-19T06:57:40.843Z,4.27
2017-03-19T06:58:46.315Z,3.07
2017-03-19T07:00:05.290Z,4.80
2017-03-19T07:01:10.524Z,4.13
2017-03-19T07:02:32.275Z,4.30
2017-03-19T07:03:53.854Z,3.57
2017-03-19T07:06:44.804Z,3.48
2017-03-19T07:08:03.393Z,4.17
2017-03-19T07:09:24.838Z,3.77
2017-03-19T07:15:09.423Z,3.60
2017-03-19T07:16:30.874Z,4.60
2017-03-19T07:17:52.586Z,4.35
2017-03-19T07:19:13.919Z,6.83
2017-03-19T07:20:33.656Z,4.12
2017-03-19T07:21:53.361Z,3.30
2017-03-19T07:23:08.539Z,4.28
2017-03-19T07:24:29.749Z,3.70
2017-03-19T07:25:51.027Z,4.05
2017-03-19T07:27:12.736Z,3.82
2017-03-19T07:29:57.005Z,3.32
2017-03-19T07:31:12.982Z,4.15
2017-03-19T07:33:58.692Z,4.48
2017-03-19T07:35:17.651Z,3.95
2017-03-19T07:36:32.290Z,5.32
2017-03-19T07:39:24.207Z,4.00
2017-03-19T07:40:45.795Z,4.52
2017-03-19T07:45:09.844Z,4.53
2017-03-19T07:47:56.133Z,5.80
2017-03-19T07:49:16.900Z,6.65
2017-03-19T07:50:32.290Z,5.08
2017-03-19T07:51:53.600Z,4.20
2017-03-19T07:53:05.948Z,3.73
2017-03-19T07:54:16.501Z,3.28
2017-03-19T07:55:22.674Z,4.02
2017-03-19T07:56:31.338Z,3.02
2017-03-19T07:57:42.838Z,3.90
2017-03-19T07:58:48.090Z,3.58
2017-03-19T07:59:53.483Z,2.98
2017-03-19T08:00:59.239Z,3.90
2017-03-19T08:03:38.770Z,3.38
2017-03-19T08:06:24.746Z,4.83
2017-03-19T08:07:32.246Z,3.90
2017-03-19T08:08:48.485Z,4.38
2017-03-19T08:10:12.171Z,4.33
2017-03-19T08:11:27.465Z,3.83
2017-03-19T08:12:49.166Z,3.78
2017-03-19T08:14:07.748Z,3.53
2017-03-19T08:15:23.124Z,3.10
2017-03-19T08:16:46.745Z,3.15
2017-03-19T08:19:38.259Z,3.60
2017-03-19T08:20:57.765Z,3.07
2017-03-19T08:22:13.056Z,2.70
2017-03-19T08:23:35.078Z,2.90
2017-03-19T08:26:26.970Z,2.85
2017-03-19T08:27:34.979Z,3.65
2017-03-19T08:28:49.160Z,3.07
2017-03-19T08:31:37.521Z,3.17
2017-03-19T08:32:43.443Z,3.78
2017-03-19T08:34:03.170Z,3.02
2017-03-19T08:35:08.818Z,3.42
2017-03-19T08:36:13.764Z,4.12
2017-03-19T08:37:20.062Z,4.00
2017-03-19T08:38:24.941Z,3.70
2017-03-19T08:39:36.586Z,3.25
2017-03-19T08:40:41.997Z,4.88
2017-03-19T08:41:47.477Z,2.88
2017-03-19T08:42:53.126Z,3.30
2017-03-19T08:43:58.753Z,4.10
2017-03-19T08:45:04.401Z,3.27
2017-03-19T08:46:24.349Z,3.12
2017-03-19T08:47:39.610Z,3.63
2017-03-19T08:48:46.622Z,2.85
2017-03-19T08:49:58.737Z,3.28
2017-03-19T08:51:18.409Z,3.55
2017-03-19T08:52:27.349Z,2.95
2017-03-19T08:53:32.017Z,3.97
2017-03-19T08:54:37.624Z,3.08
2017-03-19T08:55:43.189Z,3.03
2017-03-19T08:56:49.465Z,2.92
2017-03-19T08:58:10.916Z,3.20
2017-03-19T08:59:30.258Z,3.03
2017-03-19T09:00:35.366Z,2.53
2017-03-19T09:01:55.394Z,3.13
2017-03-19T09:03:09.336Z,3.75
2017-03-19T09:04:23.457Z,3.32
2017-03-19T09:05:35.651Z,3.33
2017-03-19T09:06:46.915Z,3.87
2017-03-19T09:07:58.119Z,4.08
2017-03-19T09:09:20.314Z,4.37
2017-03-19T09:10:39.993Z,3.05
2017-03-19T09:13:21.633Z,2.27
2017-03-19T09:14:34.925Z,2.40
2017-03-19T09:15:59.023Z,2.53
2017-03-19T09:17:17.955Z,4.22
2017-03-19T09:18:39.072Z,2.78
2017-03-19T09:19:59.636Z,2.50
2017-03-19T09:21:14.855Z,2.77
2017-03-19T09:23:58.941Z,2.13
2017-03-19T09:25:14.586Z,2.67
2017-03-19T09:26:37.647Z,3.40
2017-03-19T09:27:49.016Z,2.82
2017-03-19T09:29:00.420Z,2.95
2017-03-19T09:30:22.666Z,2.70
2017-03-19T09:31:44.202Z,2.33
2017-03-19T09:32:56.659Z,3.12
2017-03-19T09:34:19.429Z,2.62
2017-03-19T09:35:40.973Z,3.75
2017-03-19T09:40:03.198Z,1.85
2017-03-19T09:41:15.806Z,3.25
2017-03-19T09:42:32.463Z,1.78
2017-03-19T09:43:52.031Z,2.23
2017-03-19T09:45:14.805Z,1.72
2017-03-19T09:46:29.851Z,2.13
2017-03-19T09:47:51.958Z,2.68
2017-03-19T09:49:06.126Z,3.13
2017-03-19T09:50:20.905Z,4.18
2017-03-19T09:51:44.817Z,3.28
2017-03-19T09:53:06.042Z,7.48
2017-03-19T09:55:51.615Z,4.82
2017-03-19T09:58:45.018Z,2.17
2017-03-19T10:00:07.585Z,2.35
2017-03-19T10:01:29.027Z,2.10
2017-03-19T10:04:19.804Z,2.37
2017-03-19T10:05:38.323Z,2.05
2017-03-19T10:08:31.231Z,2.35
2017-03-19T10:09:51.862Z,4.58
2017-03-19T10:11:13.138Z,1.83
2017-03-19T10:12:26.263Z,3.17
2017-03-19T10:13:48.207Z,2.35
2017-03-19T10:15:02.474Z,3.62
2017-03-19T10:16:22.565Z,2.05
2017-03-19T10:17:43.821Z,3.57
2017-03-19T10:18:58.654Z,2.87
2017-03-19T10:20:20.782Z,3.25
2017-03-19T10:21:41.415Z,3.18
2017-03-19T10:22:55.719Z,5.32
2017-03-19T10:24:16.709Z,1.80
2017-03-19T10:25:32.458Z,1.47
2017-03-19T10:26:53.800Z,1.80
2017-03-19T10:29:38.351Z,3.00
2017-03-19T10:31:00.219Z,3.90
2017-03-19T10:32:21.822Z,5.60
2017-03-19T10:33:36.978Z,2.43
2017-03-19T10:34:58.944Z,4.82
2017-03-19T10:36:16.461Z,1.97
2017-03-19T10:37:38.022Z,3.10
2017-03-19T10:38:58.827Z,5.08
2017-03-19T10:40:22.214Z,5.02
2017-03-19T10:42:57.214Z,3.92
2017-03-19T10:44:03.142Z,5.50
2017-03-19T10:45:08.366Z,3.92
2017-03-19T10:46:15.491Z,7.42
2017-03-19T10:47:21.334Z,6.67
2017-03-19T10:48:26.861Z,4.43
2017-03-19T10:49:46.980Z,4.92
2017-03-19T10:52:37.102Z,3.42
2017-03-19T10:53:52.391Z,7.32
2017-03-19T10:56:35.523Z,5.24
2017-03-19T10:59:28.691Z,4.12
2017-03-19T11:00:43.718Z,5.30
2017-03-19T11:02:06.632Z,4.43
2017-03-19T11:03:28.131Z,8.85
2017-03-19T11:04:49.603Z,10.03
2017-03-19T11:06:10.098Z,5.43
2017-03-19T11:08:52.791Z,4.08
2017-03-19T11:10:06.417Z,5.02
2017-03-19T11:11:21.110Z,8.25
2017-03-19T11:14:04.949Z,3.45
2017-03-19T11:15:25.957Z,4.72
2017-03-19T11:18:09.585Z,5.50
2017-03-19T11:21:01.139Z,6.07
2017-03-19T11:22:22.589Z,4.10
2017-03-19T11:25:13.549Z,6.32
2017-03-19T11:26:34.099Z,5.33
2017-03-19T11:27:49.227Z,3.70
2017-03-19T11:29:11.084Z,3.73
2017-03-19T11:30:32.587Z,4.45
2017-03-19T11:31:56.194Z,3.25
2017-03-19T11:33:16.771Z,3.90
2017-03-19T11:37:39.101Z,4.40
2017-03-19T11:40:22.682Z,6.43
2017-03-19T11:41:38.231Z,5.10
2017-03-19T11:43:02.286Z,5.18
2017-03-19T11:44:23.814Z,6.57
2017-03-19T11:45:39.177Z,6.33
2017-03-19T11:48:22.954Z,3.95
2017-03-19T11:49:39.105Z,3.78
2017-03-19T11:51:00.724Z,4.85
2017-03-19T11:52:15.996Z,5.22
2017-03-19T11:55:05.310Z,4.72
2017-03-19T11:56:28.696Z,5.18
2017-03-19T11:57:50.359Z,6.07
2017-03-19T11:59:13.912Z,4.45
2017-03-19T12:02:04.804Z,6.48
2017-03-19T12:04:53.672Z,4.42
2017-03-19T12:06:08.882Z,4.83
2017-03-19T12:07:30.592Z,6.70
2017-03-19T12:10:22.177Z,2.35
2017-03-19T12:11:37.423Z,3.07
2017-03-19T12:12:49.103Z,5.42
2017-03-19T12:14:10.937Z,6.90
2017-03-19T12:16:52.583Z,3.42
2017-03-19T12:19:44.652Z,2.30
2017-03-19T12:21:05.370Z,5.13
2017-03-19T12:22:24.932Z,4.47
2017-03-19T12:25:07.528Z,3.48
2017-03-19T12:27:59.532Z,6.07
2017-03-19T12:29:13.850Z,5.98
2017-03-19T12:33:37.526Z,3.83
2017-03-19T12:36:20.842Z,5.80
2017-03-19T12:37:36.499Z,6.07
2017-03-19T12:40:28.635Z,7.25
2017-03-19T12:41:48.448Z,6.33
2017-03-19T12:43:09.757Z,8.00
2017-03-19T12:44:31.551Z,5.67
2017-03-19T12:45:52.032Z,7.77
2017-03-19T12:56:03.314Z,5.18
2017-03-19T12:57:25.040Z,6.63
2017-03-19T13:00:16.778Z,10.32
2017-03-19T13:01:38.474Z,4.52
2017-03-19T13:02:57.030Z,10.77
2017-03-19T13:04:09.054Z,9.53
2017-03-19T13:05:26.992Z,9.13
2017-03-19T13:08:10.010Z,7.37
2017-03-19T13:09:29.440Z,4.82
2017-03-19T13:10:52.062Z,9.45
2017-03-19T13:12:05.141Z,9.12
2017-03-19T13:13:26.308Z,9.87
2017-03-19T13:14:41.315Z,7.75
2017-03-19T13:17:23.189Z,6.12
2017-03-19T13:18:37.944Z,6.98
2017-03-19T13:19:51.729Z,11.40
2017-03-19T13:21:15.528Z,9.37
2017-03-19T13:22:34.971Z,10.82
2017-03-19T13:23:58.655Z,6.47
2017-03-19T13:25:20.069Z,4.87
2017-03-19T13:26:41.737Z,8.42
2017-03-19T13:27:56.833Z,5.58
2017-03-19T13:29:10.885Z,7.27
2017-03-19T13:30:25.915Z,5.77
2017-03-19T13:31:42.239Z,17.62
2017-03-19T13:33:03.184Z,16.32
2017-03-19T13:34:23.817Z,9.45
2017-03-19T13:35:37.011Z,12.17
2017-03-19T13:37:00.688Z,11.37
2017-03-19T13:44:07.297Z,13.72
2017-03-19T13:45:22.552Z,8.87
2017-03-19T13:48:08.009Z,5.15
2017-03-19T13:49:24.359Z,9.72
2017-03-19T13:53:45.677Z,4.88
2017-03-19T13:56:29.577Z,7.10
2017-03-19T14:03:50.743Z,9.96
2017-03-19T14:05:12.392Z,6.22
2017-03-19T14:09:30.601Z,4.02
2017-03-19T14:10:44.952Z,7.13
2017-03-19T14:12:06.780Z,7.27
2017-03-19T14:13:22.143Z,6.50
2017-03-19T14:14:46.962Z,5.17
2017-03-19T14:16:02.211Z,6.05
2017-03-19T14:17:15.789Z,8.68
2017-03-19T14:18:31.434Z,6.03
2017-03-19T14:19:53.122Z,6.85
2017-03-19T14:25:38.535Z,7.15
2017-03-19T14:27:00.365Z,5.88
2017-03-19T14:28:15.713Z,8.12
2017-03-19T14:29:29.426Z,5.42
2017-03-19T14:32:14.309Z,7.97
2017-03-19T14:33:26.899Z,6.75
2017-03-19T14:36:12.898Z,5.48
2017-03-19T14:37:28.437Z,6.70
2017-03-19T14:38:42.212Z,5.58
2017-03-19T14:40:01.780Z,5.75
2017-03-19T14:41:18.462Z,5.95
2017-03-19T14:44:05.321Z,7.67
2017-03-19T14:47:02.287Z,11.25
2017-03-19T14:48:26.455Z,6.87
2017-03-19T14:51:11.173Z,5.83
2017-03-19T14:58:16.676Z,6.43
2017-03-19T14:59:38.477Z,6.30
2017-03-19T15:00:52.832Z,8.50
2017-03-19T15:05:06.443Z,7.34
2017-03-19T15:08:00.532Z,6.87
2017-03-19T15:09:15.987Z,5.73
2017-03-19T15:10:32.902Z,6.88
2017-03-19T15:11:47.391Z,4.98
2017-03-19T15:13:02.890Z,7.37
2017-03-19T15:14:18.456Z,7.40
2017-03-19T15:15:35.382Z,6.52
2017-03-19T15:16:56.795Z,6.47
2017-03-19T15:18:20.330Z,9.50
2017-03-19T15:19:26.970Z,7.00
2017-03-19T15:20:32.581Z,6.97
2017-03-19T15:21:38.334Z,5.70
2017-03-19T15:22:43.945Z,6.33
2017-03-19T15:23:48.633Z,8.58
2017-03-19T15:24:54.118Z,6.97
2017-03-19T15:25:59.680Z,6.37
2017-03-19T15:27:05.575Z,6.43
2017-03-19T15:28:11.980Z,6.47
2017-03-19T15:29:17.604Z,6.47
2017-03-19T15:30:23.016Z,5.87
2017-03-19T15:31:29.282Z,8.22
2017-03-19T15:32:34.124Z,10.30
2017-03-19T15:33:39.476Z,6.85
2017-03-19T15:34:45.003Z,9.17
2017-03-19T15:35:50.869Z,7.07
2017-03-19T15:36:56.051Z,9.00
2017-03-19T15:38:01.613Z,6.77
2017-03-19T15:39:06.999Z,6.63
2017-03-19T15:40:13.332Z,6.97
2017-03-19T15:41:18.373Z,6.70
2017-03-19T15:42:23.552Z,6.17
2017-03-19T15:43:29.093Z,8.25
2017-03-19T15:44:34.674Z,8.93
2017-03-19T15:45:39.346Z,8.18
2017-03-19T15:46:45.588Z,7.27
2017-03-19T15:47:51.342Z,7.20
2017-03-19T15:48:56.193Z,6.43
2017-03-19T15:50:01.589Z,6.27
2017-03-19T15:51:07.941Z,6.35
2017-03-19T15:52:12.744Z,7.48
2017-03-19T15:53:18.933Z,6.78
2017-03-19T15:54:23.832Z,5.73
2017-03-19T15:55:29.332Z,6.82
2017-03-19T15:56:35.747Z,5.28
2017-03-19T15:57:40.369Z,7.83
2017-03-19T15:58:46.645Z,8.03
2017-03-19T15:59:51.397Z,6.42
2017-03-19T16:00:56.988Z,6.52
2017-03-19T16:02:02.316Z,7.33
2017-03-19T16:03:07.919Z,6.60
2017-03-19T16:04:13.390Z,11.62
2017-03-19T16:05:18.962Z,8.47
2017-03-19T16:06:24.520Z,10.27
2017-03-19T16:07:29.929Z,7.57
2017-03-19T16:08:36.101Z,7.97
2017-03-19T16:09:40.981Z,7.02
2017-03-19T16:10:46.638Z,7.60
2017-03-19T16:11:52.871Z,8.27
2017-03-19T16:12:57.685Z,7.20
2017-03-19T16:14:03.141Z,7.80
2017-03-19T16:15:07.836Z,8.68
2017-03-19T16:16:15.152Z,7.60
2017-03-19T16:17:19.949Z,8.30
2017-03-19T16:18:26.327Z,8.48
2017-03-19T16:19:31.097Z,8.25
2017-03-19T16:20:36.711Z,7.85
2017-03-19T16:21:42.169Z,8.37
2017-03-19T16:22:47.754Z,6.72
2017-03-19T16:23:54.002Z,9.58
2017-03-19T16:24:58.929Z,7.17
2017-03-19T16:26:05.024Z,8.97
2017-03-19T16:27:09.909Z,6.52
2017-03-19T16:28:15.329Z,7.78
2017-03-19T16:29:20.025Z,6.55
2017-03-19T16:30:25.494Z,6.63
2017-03-19T16:31:30.985Z,7.13
2017-03-19T16:32:37.416Z,7.20
2017-03-19T16:33:42.145Z,7.87
2017-03-19T16:34:47.570Z,6.17
2017-03-19T16:35:53.704Z,8.12
2017-03-19T16:36:58.747Z,5.77
2017-03-19T16:38:04.402Z,7.12
2017-03-19T16:39:10.722Z,6.43
2017-03-19T16:40:16.278Z,7.67
2017-03-19T16:41:21.924Z,6.82
2017-03-19T16:42:27.517Z,5.82
2017-03-19T16:43:33.157Z,7.87
2017-03-19T16:44:38.657Z,6.88
2017-03-19T16:45:44.233Z,4.95
2017-03-19T16:46:49.726Z,6.88
2017-03-19T16:47:55.557Z,7.75
2017-03-19T16:49:02.565Z,6.00
2017-03-19T16:50:07.433Z,7.13
2017-03-19T16:51:12.799Z,6.43
2017-03-19T16:52:19.392Z,4.80
2017-03-19T16:53:24.928Z,7.10
2017-03-19T16:54:30.525Z,7.08
2017-03-19T16:55:35.222Z,11.67
2017-03-19T16:56:40.760Z,7.20
2017-03-19T16:57:46.413Z,6.93
2017-03-19T16:58:51.781Z,7.32
2017-03-19T16:59:56.558Z,6.90
2017-03-19T17:01:02.839Z,5.42
2017-03-19T17:02:07.665Z,9.07
2017-03-19T17:03:13.909Z,5.88
2017-03-19T17:04:19.497Z,7.72
2017-03-19T17:05:24.241Z,8.07
2017-03-19T17:06:30.517Z,8.63
2017-03-19T17:07:36.110Z,6.43
2017-03-19T17:08:40.934Z,6.87
2017-03-19T17:09:46.340Z,6.82
2017-03-19T17:10:52.683Z,7.28
2017-03-19T17:11:57.489Z,6.42
2017-03-19T17:13:03.005Z,8.75
2017-03-19T17:14:08.577Z,7.70
2017-03-19T17:15:14.110Z,10.02
2017-03-19T17:16:21.459Z,10.58
2017-03-19T17:17:26.240Z,6.92
2017-03-19T17:18:30.897Z,5.57
2017-03-19T17:19:36.525Z,5.58
2017-03-19T17:20:42.106Z,7.93
2017-03-19T17:21:47.793Z,8.28
2017-03-19T17:22:53.557Z,8.22
2017-03-19T17:23:58.858Z,6.68
2017-03-19T17:25:04.250Z,6.75
2017-03-19T17:26:09.753Z,7.88
2017-03-19T17:27:15.217Z,5.62
2017-03-19T17:28:19.838Z,6.58
2017-03-19T17:29:25.202Z,6.82
2017-03-19T17:30:30.841Z,6.77
2017-03-19T17:31:36.261Z,4.95
2017-03-19T17:32:42.103Z,6.78
2017-03-19T17:33:47.442Z,5.45
2017-03-19T17:34:53.827Z,5.97
2017-03-19T17:35:58.905Z,6.85
2017-03-19T17:37:04.243Z,4.80
2017-03-19T17:38:09.826Z,5.83
2017-03-19T17:39:15.358Z,5.32
2017-03-19T17:40:20.089Z,5.65
2017-03-19T17:41:25.580Z,5.37
2017-03-19T17:42:31.865Z,5.53
2017-03-19T17:43:37.541Z,5.75
2017-03-19T17:44:42.908Z,4.78
2017-03-19T17:45:49.182Z,6.25
2017-03-19T17:46:53.958Z,9.32
2017-03-19T17:47:59.518Z,5.52
2017-03-19T17:49:05.045Z,5.27
2017-03-19T17:50:11.316Z,7.98
2017-03-19T17:51:17.377Z,4.97
2017-03-19T17:52:22.634Z,5.92
2017-03-19T17:53:28.113Z,4.35
2017-03-19T17:54:32.837Z,4.95
2017-03-19T17:55:38.365Z,5.58
2017-03-19T17:56:43.965Z,5.12
2017-03-19T17:57:49.451Z,5.00
2017-03-19T17:58:55.089Z,6.10
2017-03-19T18:00:00.519Z,5.22
2017-03-19T18:01:05.962Z,5.20
2017-03-19T18:02:12.079Z,7.17
2017-03-19T18:03:16.793Z,4.65
2017-03-19T18:04:22.399Z,4.55
2017-03-19T18:05:27.933Z,4.57
2017-03-19T18:06:33.541Z,4.58
2017-03-19T18:07:39.035Z,5.40
2017-03-19T18:08:44.516Z,4.62
2017-03-19T18:09:49.213Z,4.87
2017-03-19T18:10:54.844Z,4.82
2017-03-19T18:12:00.472Z,4.42
2017-03-19T18:13:06.689Z,4.72
2017-03-19T18:14:11.513Z,4.65
2017-03-19T18:15:17.096Z,4.43
2017-03-19T18:16:22.684Z,4.97
2017-03-19T18:17:27.896Z,5.25
2017-03-19T18:18:33.486Z,4.52
2017-03-19T18:19:38.913Z,5.60
2017-03-19T18:20:44.477Z,4.95
2017-03-19T18:21:50.042Z,5.55
2017-03-19T18:22:54.801Z,5.02
2017-03-19T18:24:00.418Z,5.42
2017-03-19T18:25:06.004Z,5.85
2017-03-19T18:26:11.605Z,4.98
2017-03-19T18:27:17.206Z,7.62
2017-03-19T18:28:22.696Z,4.87
2017-03-19T18:29:28.261Z,4.87
2017-03-19T18:30:33.820Z,5.25
2017-03-19T18:31:39.405Z,5.28
2017-03-19T18:32:45.025Z,5.42
2017-03-19T18:33:51.437Z,6.15
2017-03-19T18:34:56.170Z,5.87
2017-03-19T18:36:02.447Z,6.08
2017-03-19T18:37:07.221Z,7.35
2017-03-19T18:38:11.926Z,9.02
2017-03-19T18:39:18.386Z,8.17
2017-03-19T18:40:23.253Z,10.85
2017-03-19T18:41:28.745Z,12.23
2017-03-19T18:42:34.249Z,8.85
2017-03-19T18:43:39.806Z,15.98
2017-03-19T18:44:45.321Z,11.63
2017-03-19T18:45:50.701Z,10.98
2017-03-19T18:46:56.238Z,9.83
2017-03-19T18:48:01.827Z,12.55
2017-03-19T18:49:07.984Z,8.95
2017-03-19T18:50:13.537Z,8.95
2017-03-19T18:51:18.208Z,9.12
2017-03-19T18:52:23.864Z,8.30
2017-03-19T18:53:29.471Z,12.90
2017-03-19T18:54:34.948Z,12.65
2017-03-19T18:55:40.374Z,12.27
2017-03-19T18:56:45.937Z,13.28
2017-03-19T18:57:52.176Z,8.15
2017-03-19T18:58:56.964Z,12.85
2017-03-19T19:00:03.790Z,22.48
2017-03-19T19:01:09.089Z,9.77
2017-03-19T19:02:14.617Z,8.68
2017-03-19T19:03:20.206Z,9.45
2017-03-19T19:04:25.803Z,10.93
2017-03-19T19:05:31.468Z,9.60
2017-03-19T19:06:37.016Z,6.20
2017-03-19T19:07:42.526Z,10.68
2017-03-19T19:08:47.316Z,11.52
2017-03-19T19:09:52.910Z,8.08
2017-03-19T19:10:58.360Z,10.08
2017-03-19T19:12:04.017Z,7.52
2017-03-19T19:13:09.547Z,9.38
2017-03-19T19:14:15.094Z,7.83
2017-03-19T19:15:21.460Z,6.70
2017-03-19T19:16:27.049Z,8.23
2017-03-19T19:17:34.935Z,8.27
2017-03-19T19:18:40.460Z,11.72
2017-03-19T19:19:46.013Z,8.75
2017-03-19T19:20:51.425Z,7.60
2017-03-19T19:21:56.270Z,11.20
2017-03-19T19:23:01.774Z,8.97
2017-03-19T19:24:07.394Z,8.37
2017-03-19T19:25:12.982Z,7.73